Time;durP1;ratioP1;P1;durP2;ratioP2;P2;SDS_P1;SDS_P2;PMS_P1;PMS_P2;Temp;Humidity;BMP_temperature;BMP_pressure;BME280_temperature;BME280_humidity;BME280_pressure;Samples;Min_cycle;Max_cycle;Signal;HPM_P1;HPM_P2
2020/12/15 00:00:28;;;;;;;168.00;59.35;;;;;;;-3.23;75.06;97470.22;1787225;77;25792;-84
2020/12/15 00:02:57;;;;;;;160.97;59.40;;;;;;;-3.21;75.04;97474.89;1787459;77;25353;-84
2020/12/15 00:05:24;;;;;;;152.78;56.33;;;;;;;-3.18;75.08;97474.66;1808001;77;25594;-86
2020/12/15 00:07:52;;;;;;;161.18;59.53;;;;;;;-3.22;75.01;97477.17;1820097;77;25788;-85
2020/12/15 00:10:19;;;;;;;163.72;57.00;;;;;;;-3.25;75.03;97475.61;1809490;77;28510;-84
2020/12/15 00:12:46;;;;;;;156.60;54.83;;;;;;;-3.23;75.08;97472.85;1809506;77;25694;-86
2020/12/15 00:15:14;;;;;;;151.30;55.35;;;;;;;-3.22;75.02;97475.85;1809606;77;25776;-84
2020/12/15 00:17:41;;;;;;;132.40;50.03;;;;;;;-3.26;75.00;97484.02;1809583;77;25667;-83
2020/12/15 00:20:08;;;;;;;131.10;50.80;;;;;;;-3.25;75.07;97482.21;1825360;77;26408;-84
2020/12/15 00:22:36;;;;;;;140.88;52.83;;;;;;;-3.23;75.11;97488.69;1809567;77;26699;-88
2020/12/15 00:25:05;;;;;;;143.35;54.83;;;;;;;-3.19;75.11;97492.77;1809479;77;25835;-84
2020/12/15 00:27:32;;;;;;;143.40;53.10;;;;;;;-3.23;75.01;97492.17;1794145;77;25698;-83
2020/12/15 00:30:00;;;;;;;140.75;49.83;;;;;;;-3.24;74.98;97485.69;1819799;77;25780;-88
2020/12/15 00:32:27;;;;;;;134.57;51.58;;;;;;;-3.28;75.00;97489.92;1836007;77;25937;-84
2020/12/15 00:34:55;;;;;;;113.65;45.10;;;;;;;-3.27;75.05;97488.97;1810957;77;27477;-84
2020/12/15 00:37:22;;;;;;;110.22;41.30;;;;;;;-3.28;75.12;97488.60;1784668;78;25688;-87
2020/12/15 00:39:49;;;;;;;100.72;38.48;;;;;;;-3.28;75.22;97481.16;1780237;78;25865;-87
2020/12/15 00:42:17;;;;;;;104.30;39.03;;;;;;;-3.31;75.29;97484.05;1784641;79;25743;-83
2020/12/15 00:44:45;;;;;;;111.80;43.50;;;;;;;-3.32;75.29;97487.16;1773326;79;25783;-91
2020/12/15 00:47:12;;;;;;;132.20;51.80;;;;;;;-3.37;75.32;97484.04;1795777;79;28575;-86
2020/12/15 00:49:39;;;;;;;141.30;55.60;;;;;;;-3.36;75.41;97491.00;1792244;79;26156;-83
2020/12/15 00:52:07;;;;;;;113.37;47.10;;;;;;;-3.35;75.34;97486.08;1770576;79;25965;-87
2020/12/15 00:54:34;;;;;;;119.15;46.48;;;;;;;-3.33;75.36;97493.41;1774738;79;25831;-84
2020/12/15 00:57:01;;;;;;;106.90;41.80;;;;;;;-3.31;75.37;97488.00;1771675;79;25849;-88
2020/12/15 00:59:28;;;;;;;119.62;43.55;;;;;;;-3.33;75.34;97480.69;1774281;79;28048;-83
2020/12/15 01:02:01;;;;;;;100.40;38.83;;;;;;;-3.31;75.34;97479.61;1795600;79;26747;-86
2020/12/15 01:04:28;;;;;;;97.67;38.30;;;;;;;-3.30;75.38;97480.44;1795767;79;25854;-84
2020/12/15 01:06:56;;;;;;;92.60;37.95;;;;;;;-3.30;75.41;97482.61;1773389;79;25742;-87
2020/12/15 01:09:23;;;;;;;85.30;35.85;;;;;;;-3.33;75.42;97481.52;1783436;79;25767;-83
2020/12/15 01:11:51;;;;;;;73.35;32.33;;;;;;;-3.40;75.48;97481.67;1766240;79;26683;-89
2020/12/15 01:14:18;;;;;;;85.42;34.30;;;;;;;-3.45;75.62;97482.51;1763879;79;25309;-86
2020/12/15 01:16:45;;;;;;;79.00;28.77;;;;;;;-3.54;75.80;97484.57;1775284;79;25850;-83
2020/12/15 01:19:12;;;;;;;81.78;31.68;;;;;;;-3.60;75.95;97476.28;1785778;79;25723;-92
2020/12/15 01:21:41;;;;;;;88.42;33.90;;;;;;;-3.67;76.03;97471.99;1795603;79;25870;-83
2020/12/15 01:24:09;;;;;;;81.42;33.35;;;;;;;-3.67;76.10;97471.99;1783480;79;27532;-85
2020/12/15 01:26:36;;;;;;;82.72;33.38;;;;;;;-3.67;76.11;97471.52;1763784;79;26213;-87
2020/12/15 01:29:04;;;;;;;71.97;28.12;;;;;;;-3.62;76.19;97460.58;1764178;79;25686;-84
2020/12/15 01:31:31;;;;;;;68.97;28.67;;;;;;;-3.60;76.25;97468.38;1783645;79;25810;-90
2020/12/15 01:33:58;;;;;;;75.47;30.43;;;;;;;-3.56;76.33;97464.54;1795676;79;26114;-85
2020/12/15 01:36:28;;;;;;;81.42;31.55;;;;;;;-3.52;76.40;97462.86;1796303;77;28457;-90
2020/12/15 01:38:55;;;;;;;74.80;30.82;;;;;;;-3.56;76.39;97460.09;1813750;77;25848;-87
2020/12/15 01:41:23;;;;;;;70.62;28.80;;;;;;;-3.58;76.36;97465.97;1803008;77;25892;-85
2020/12/15 01:44:02;;;;;;;75.12;30.08;;;;;;;-3.53;76.38;97462.50;1809374;77;26612;-84
2020/12/15 01:46:31;;;;;;;70.55;29.48;;;;;;;-3.47;76.39;97459.35;1809323;77;25827;-84
2020/12/15 01:48:59;;;;;;;71.30;27.37;;;;;;;-3.42;76.29;97455.87;1809502;77;27617;-87
2020/12/15 01:51:29;;;;;;;60.95;25.92;;;;;;;-3.38;76.23;97464.40;1809397;77;25846;-89
2020/12/15 01:53:58;;;;;;;52.53;24.63;;;;;;;-3.37;76.21;97469.52;1809501;77;26306;-85
2020/12/15 01:56:27;;;;;;;56.60;23.75;;;;;;;-3.36;76.22;97465.92;1809476;77;25724;-83
2020/12/15 01:58:58;;;;;;;51.35;23.40;;;;;;;-3.38;76.20;97460.44;1809645;77;25721;-87
2020/12/15 02:01:26;;;;;;;52.73;22.60;;;;;;;-3.47;76.18;97459.83;1809584;77;27495;-90
2020/12/15 02:03:54;;;;;;;60.30;23.90;;;;;;;-3.44;76.33;97460.44;1801126;77;25709;-90
2020/12/15 02:06:23;;;;;;;58.10;24.67;;;;;;;-3.40;76.32;97461.88;1806854;77;25660;-84
2020/12/15 02:08:51;;;;;;;52.23;22.13;;;;;;;-3.36;76.24;97455.37;1787184;77;25678;-88
2020/12/15 02:11:19;;;;;;;47.23;22.27;;;;;;;-3.37;76.14;97459.45;1816362;77;25928;-86
2020/12/15 02:13:46;;;;;;;49.33;22.22;;;;;;;-3.42;76.08;97455.87;1832786;77;27539;-93
2020/12/15 02:16:15;;;;;;;50.67;21.12;;;;;;;-3.46;76.19;97454.44;1804978;77;26082;-85
2020/12/15 02:18:42;;;;;;;54.63;22.27;;;;;;;-3.50;76.28;97461.42;1815967;77;25778;-86
2020/12/15 02:21:10;;;;;;;51.00;20.60;;;;;;;-3.61;76.40;97456.98;1819305;77;25715;-88
2020/12/15 02:23:37;;;;;;;53.52;23.50;;;;;;;-3.68;76.51;97463.72;1826664;77;25858;-87
2020/12/15 02:26:09;;;;;;;54.18;24.43;;;;;;;-3.70;76.60;97461.67;1809450;77;27504;-90
2020/12/15 02:28:37;;;;;;;;;;;;;;;-3.69;76.61;97458.08;1812099;77;26034;-86
2020/12/15 02:31:05;;;;;;;58.13;24.80;;;;;;;-3.62;76.78;97453.98;1809489;77;25849;-89
2020/12/15 02:33:32;;;;;;;63.08;26.07;;;;;;;-3.59;76.70;97457.70;1809409;77;26467;-91
2020/12/15 02:36:00;;;;;;;64.45;26.35;;;;;;;-3.62;76.65;97451.34;1809411;77;25883;-85
2020/12/15 02:38:27;;;;;;;47.33;22.35;;;;;;;-3.61;76.68;97451.70;1814505;77;27493;-85
2020/12/15 02:40:54;;;;;;;46.30;19.20;;;;;;;-3.59;76.72;97452.90;1823381;77;25713;-89
2020/12/15 02:43:22;;;;;;;44.20;18.27;;;;;;;-3.53;76.86;97453.27;1793737;77;25805;-86
2020/12/15 02:45:49;;;;;;;41.90;18.62;;;;;;;-3.46;76.91;97451.80;1809543;77;25517;-87
2020/12/15 02:48:16;;;;;;;39.55;17.30;;;;;;;-3.41;76.93;97460.67;1809541;77;26334;-87
2020/12/15 02:50:44;;;;;;;38.13;17.48;;;;;;;-3.37;76.95;97457.65;1809591;77;28527;-85
2020/12/15 02:53:11;;;;;;;35.35;16.25;;;;;;;-3.35;76.95;97459.69;1808798;77;25737;-88
2020/12/15 02:55:38;;;;;;;40.10;17.98;;;;;;;-3.29;76.86;97464.48;1806106;77;25789;-88
2020/12/15 02:58:05;;;;;;;41.25;18.07;;;;;;;-3.28;76.82;97463.53;1821096;77;25768;-85
2020/12/15 03:00:33;;;;;;;45.35;21.23;;;;;;;-3.27;76.63;97467.00;1827263;77;25747;-87
2020/12/15 03:03:00;;;;;;;48.73;20.35;;;;;;;-3.28;76.55;97466.65;1787490;77;28451;-87
2020/12/15 03:05:27;;;;;;;52.80;25.92;;;;;;;-3.28;76.49;97458.72;1807025;77;25755;-89
2020/12/15 03:07:56;;;;;;;48.73;24.98;;;;;;;-3.36;76.45;97459.33;1809678;77;25690;-85
2020/12/15 03:10:23;;;;;;;50.63;24.50;;;;;;;-3.41;76.52;97460.20;1809430;77;25989;-86
2020/12/15 03:12:50;;;;;;;59.00;28.45;;;;;;;-3.38;76.71;97459.92;1809706;77;25882;-89
2020/12/15 03:15:17;;;;;;;44.23;21.55;;;;;;;-3.38;76.69;97460.44;1809474;77;28440;-86
2020/12/15 03:17:45;;;;;;;42.40;20.43;;;;;;;-3.40;76.70;97461.88;1832681;77;25373;-88
2020/12/15 03:20:12;;;;;;;61.50;22.42;;;;;;;-3.34;76.85;97460.05;1796064;77;25725;-87
2020/12/15 03:22:39;;;;;;;44.80;20.27;;;;;;;-3.29;76.79;97463.65;1791922;77;25837;-89
2020/12/15 03:25:07;;;;;;;46.37;18.73;;;;;;;-3.27;76.76;97462.56;1809610;77;25781;-88
2020/12/15 03:27:34;;;;;;;36.77;17.17;;;;;;;-3.27;76.71;97457.28;1809542;77;29001;-88
2020/12/15 03:30:01;;;;;;;37.67;17.32;;;;;;;-3.22;76.71;97456.89;1809531;77;25706;-86
2020/12/15 03:32:28;;;;;;;43.58;18.00;;;;;;;-3.22;76.59;97460.02;1825213;77;25802;-84
2020/12/15 03:34:56;;;;;;;38.13;16.32;;;;;;;-3.28;76.42;97467.48;1809570;77;25815;-88
2020/12/15 03:37:23;;;;;;;34.27;16.50;;;;;;;-3.35;76.34;97472.88;1832752;77;26223;-84
2020/12/15 03:39:50;;;;;;;33.55;16.85;;;;;;;-3.34;76.47;97473.24;1802324;77;28372;-84
2020/12/15 03:42:18;;;;;;;36.25;17.12;;;;;;;-3.32;76.48;97467.84;1801575;77;25758;-84
2020/12/15 03:44:46;;;;;;;45.88;20.60;;;;;;;-3.31;76.46;97474.33;1832951;77;25813;-84
2020/12/15 03:47:13;;;;;;;58.02;22.93;;;;;;;-3.30;76.34;97470.73;1796986;77;25865;-85
2020/12/15 03:49:40;;;;;;;53.05;24.02;;;;;;;-3.38;76.28;97467.84;1806904;77;25838;-84
2020/12/15 03:52:07;;;;;;;51.80;21.73;;;;;;;-3.38;76.28;97459.92;1809465;77;27474;-84
2020/12/15 03:54:35;;;;;;;38.33;18.15;;;;;;;-3.37;76.22;97463.41;1807363;77;25764;-89
2020/12/15 03:57:02;;;;;;;34.85;17.10;;;;;;;-3.41;76.15;97466.80;1796305;77;25836;-85
2020/12/15 03:59:29;;;;;;;38.15;18.00;;;;;;;-3.42;76.08;97462.95;1793843;77;25781;-90
2020/12/15 04:01:58;;;;;;;56.45;20.82;;;;;;;-3.46;76.07;97474.23;1747536;78;26126;-87
2020/12/15 04:04:26;;;;;;;51.42;19.98;;;;;;;-3.47;76.10;97463.31;1724026;81;27442;-85
2020/12/15 04:06:53;;;;;;;37.13;15.70;;;;;;;-3.46;76.06;97465.47;1724067;81;25885;-85
2020/12/15 04:09:21;;;;;;;35.83;15.10;;;;;;;-3.50;76.01;97460.91;1745901;80;25830;-84
2020/12/15 04:11:48;;;;;;;34.58;16.50;;;;;;;-3.52;76.03;97465.98;1693656;83;26556;-90
2020/12/15 04:14:15;;;;;;;27.80;15.18;;;;;;;-3.50;76.06;97461.42;1724118;81;25696;-85
2020/12/15 04:16:42;;;;;;;30.30;14.45;;;;;;;-3.50;76.05;97459.59;1724053;81;27617;-86
2020/12/15 04:19:10;;;;;;;31.35;14.95;;;;;;;-3.51;75.95;97452.67;1724134;81;25807;-84
2020/12/15 04:21:37;;;;;;;43.98;18.62;;;;;;;-3.50;75.99;97456.95;1724065;81;25759;-84
2020/12/15 04:24:04;;;;;;;49.98;20.92;;;;;;;-3.50;75.99;97456.95;1724158;81;25741;-86
2020/12/15 04:26:32;;;;;;;43.70;19.65;;;;;;;-3.50;75.93;97458.27;1724112;81;25812;-84
2020/12/15 04:28:59;;;;;;;39.13;17.98;;;;;;;-3.51;75.83;97459.27;1724045;81;27545;-86
2020/12/15 04:31:30;;;;;;;47.78;20.17;;;;;;;-3.54;75.80;97464.78;1724053;81;25860;-88
2020/12/15 04:33:58;;;;;;;45.92;20.62;;;;;;;-3.56;75.84;97461.42;1724207;81;25826;-86
2020/12/15 04:36:25;;;;;;;44.20;18.60;;;;;;;-3.55;75.89;97456.50;1724131;81;26580;-85
2020/12/15 04:38:52;;;;;;;35.55;17.57;;;;;;;-3.54;75.91;97452.91;1724154;81;25768;-87
2020/12/15 04:41:20;;;;;;;39.83;19.10;;;;;;;-3.54;75.91;97462.62;1724164;81;29210;-89
2020/12/15 04:43:49;;;;;;;37.13;18.10;;;;;;;-3.52;75.94;97465.50;1723940;81;25724;-86
2020/12/15 04:46:21;;;;;;;39.50;18.52;;;;;;;-3.52;75.91;97464.66;1724077;81;25830;-86
2020/12/15 04:49:09;;;;;;;45.17;20.48;;;;;;;-3.52;75.86;97464.18;1724244;81;25707;-85
2020/12/15 04:51:54;;;;;;;57.13;25.08;;;;;;;-3.54;75.86;97462.62;1708029;81;25654;-84
2020/12/15 04:54:27;;;;;;;72.72;29.55;;;;;;;-3.56;75.79;97460.09;1724072;81;27514;-84
2020/12/15 04:57:00;;;;;;;93.35;35.35;;;;;;;-3.59;75.78;97462.97;1723964;81;25755;-86
2020/12/15 04:59:35;;;;;;;84.03;36.58;;;;;;;-3.59;75.80;97468.25;1724227;81;25785;-89
2020/12/15 05:02:03;;;;;;;79.22;30.17;;;;;;;-3.59;75.79;97469.57;1730103;81;25804;-86
2020/12/15 05:04:39;;;;;;;74.62;29.85;;;;;;;-3.60;75.75;97470.53;1740198;81;25814;-86
2020/12/15 05:07:09;;;;;;;68.20;27.80;;;;;;;-3.59;75.69;97477.48;1740353;81;28510;-85
2020/12/15 05:09:37;;;;;;;74.82;29.20;;;;;;;-3.59;75.69;97472.21;1740139;81;26104;-85
2020/12/15 05:12:06;;;;;;;68.17;28.85;;;;;;;-3.59;75.65;97477.97;1740231;81;25948;-85
2020/12/15 05:14:34;;;;;;;69.32;29.30;;;;;;;-3.59;75.60;97485.41;1740281;81;26363;-88
2020/12/15 05:17:01;;;;;;;80.67;31.42;;;;;;;-3.63;75.47;97489.27;1740206;81;25709;-84
2020/12/15 05:19:28;;;;;;;81.97;33.98;;;;;;;-3.67;75.47;97482.55;1740250;81;28545;-84
2020/12/15 05:22:01;;;;;;;87.70;33.53;;;;;;;-3.69;75.49;97489.73;1740284;81;25760;-84
2020/12/15 05:24:30;;;;;;;90.57;32.78;;;;;;;-3.71;75.44;97489.02;1740399;81;26186;-88
2020/12/15 05:27:01;;;;;;;98.80;35.08;;;;;;;-3.73;75.46;97493.56;1740305;81;25744;-84
2020/12/15 05:29:28;;;;;;;90.97;33.05;;;;;;;-3.75;75.43;97498.15;1740340;81;25817;-87
2020/12/15 05:31:59;;;;;;;99.62;36.15;;;;;;;-3.75;75.41;97495.51;1740210;81;28487;-84
2020/12/15 05:34:27;;;;;;;90.03;31.82;;;;;;;-3.78;75.33;97495.27;1740246;81;25864;-87
2020/12/15 05:36:58;;;;;;;90.12;33.18;;;;;;;-3.77;75.46;97496.95;1740139;81;25878;-83
2020/12/15 05:39:28;;;;;;;94.05;38.33;;;;;;;-3.76;75.50;97499.95;1740271;81;25848;-85
2020/12/15 05:42:07;;;;;;;105.92;42.83;;;;;;;-3.82;75.53;97499.57;1740332;81;25704;-84
2020/12/15 05:44:37;;;;;;;131.82;54.33;;;;;;;-3.86;75.51;97493.69;1740314;81;27558;-88
2020/12/15 05:47:07;;;;;;;153.20;64.30;;;;;;;-4.00;75.48;97497.42;1740125;81;25723;-84
2020/12/15 05:49:41;;;;;;;237.95;91.20;;;;;;;-4.08;75.58;97501.11;1740234;81;25761;-84
2020/12/15 05:52:09;;;;;;;198.20;72.47;;;;;;;-4.13;75.59;97498.02;1740303;81;25838;-87
2020/12/15 05:54:37;;;;;;;173.87;60.63;;;;;;;-4.11;75.66;97496.10;1740259;81;25731;-86
2020/12/15 05:57:07;;;;;;;157.57;52.65;;;;;;;-4.09;75.72;97496.80;1740225;81;27681;-84
2020/12/15 05:59:35;;;;;;;178.85;63.98;;;;;;;-4.06;75.68;97495.73;1740222;81;25751;-83
2020/12/15 06:02:09;;;;;;;215.68;72.40;;;;;;;-4.06;75.63;97494.41;1736652;81;25826;-87
2020/12/15 06:04:38;;;;;;;207.20;73.83;;;;;;;-4.06;75.56;97496.56;1704790;81;26473;-84
2020/12/15 06:07:09;;;;;;;208.40;77.75;;;;;;;-4.05;75.56;97496.93;1723977;81;25827;-87
2020/12/15 06:09:37;;;;;;;221.75;80.07;;;;;;;-4.02;75.54;97504.61;1723989;81;27506;-87
2020/12/15 06:12:06;;;;;;;212.30;79.03;;;;;;;-4.03;75.45;97510.00;1723927;81;25564;-87
2020/12/15 06:14:33;;;;;;;181.70;63.45;;;;;;;-4.04;75.41;97511.80;1724015;81;25752;-84
2020/12/15 06:17:00;;;;;;;181.00;63.70;;;;;;;-4.06;75.37;97513.70;1724033;81;26314;-85
2020/12/15 06:19:30;;;;;;;143.32;52.25;;;;;;;-4.04;75.39;97512.27;1724083;81;26167;-85
2020/12/15 06:21:59;;;;;;;135.03;50.25;;;;;;;-4.03;75.41;97512.64;1724063;81;28363;-85
2020/12/15 06:24:37;;;;;;;111.90;43.52;;;;;;;-4.02;75.40;97512.52;1723957;81;26337;-84
2020/12/15 06:27:02;;;;;;;107.87;43.30;;;;;;;-4.03;75.42;97509.52;1723083;81;25839;-85
2020/12/15 06:29:33;;;;;;;112.52;39.45;;;;;;;-4.01;75.40;97518.16;1724051;81;25812;-85
2020/12/15 06:32:04;;;;;;;104.47;40.33;;;;;;;-3.97;75.44;97523.17;1723750;81;26276;-84
2020/12/15 06:34:32;;;;;;;92.90;36.23;;;;;;;-3.94;75.39;97517.19;1710711;82;47787;-86
2020/12/15 06:37:00;;;;;;;98.55;37.58;;;;;;;-3.93;75.35;97518.03;1723915;81;26842;-84
2020/12/15 06:39:30;;;;;;;102.62;41.88;;;;;;;-3.95;75.31;97518.63;1724030;81;25771;-86
2020/12/15 06:42:04;;;;;;;114.22;45.08;;;;;;;-3.96;75.29;97526.17;1723968;81;25842;-87
2020/12/15 06:44:36;;;;;;;118.45;49.73;;;;;;;-3.97;75.30;97530.61;1724096;81;26347;-85
2020/12/15 06:47:06;;;;;;;208.90;80.42;;;;;;;-3.98;75.27;97536.83;1724033;81;27554;-86
2020/12/15 06:49:36;;;;;;;242.00;94.55;;;;;;;-4.06;75.17;97524.25;1723988;81;25970;-85
2020/12/15 06:52:08;;;;;;;277.32;108.25;;;;;;;-4.07;75.14;97542.82;1723946;81;25681;-84
2020/12/15 06:54:37;;;;;;;314.77;119.77;;;;;;;-4.17;74.99;97532.14;1704406;81;25889;-86
2020/12/15 06:57:11;;;;;;;263.05;98.90;;;;;;;-4.20;75.09;97532.37;1723985;81;25751;-87
2020/12/15 06:59:41;;;;;;;217.65;78.15;;;;;;;-4.24;75.08;97538.85;1724126;81;28448;-85
2020/12/15 07:02:17;;;;;;;186.97;70.08;;;;;;;-4.24;75.21;97534.91;1724658;80;26345;-86
2020/12/15 07:04:49;;;;;;;217.20;84.52;;;;;;;-4.21;75.30;97543.87;1732417;81;25811;-85
2020/12/15 07:07:17;;;;;;;275.13;106.22;;;;;;;-4.16;75.37;97539.09;1732573;81;25809;-85
2020/12/15 07:09:45;;;;;;;258.82;98.80;;;;;;;-4.15;75.33;97544.73;1732306;81;25855;-86
2020/12/15 07:12:16;;;;;;;240.35;90.62;;;;;;;-4.14;75.37;97537.19;1732318;81;27566;-87
2020/12/15 07:14:51;;;;;;;210.13;81.37;;;;;;;-4.10;75.40;97543.05;1732234;81;25855;-86
2020/12/15 07:17:18;;;;;;;219.65;84.58;;;;;;;-4.07;75.40;97539.70;1732147;81;26530;-87
2020/12/15 07:19:46;;;;;;;232.62;90.92;;;;;;;-4.02;75.40;97530.98;1732261;81;26411;-85
2020/12/15 07:22:13;;;;;;;233.78;94.52;;;;;;;-3.99;75.41;97529.91;1705289;82;25801;-87
2020/12/15 07:24:41;;;;;;;206.23;89.42;;;;;;;-3.96;75.38;97526.17;1732298;81;27725;-86
2020/12/15 07:27:09;;;;;;;206.10;81.63;;;;;;;-3.95;75.43;97523.42;1732251;81;26335;-87
2020/12/15 07:29:37;;;;;;;204.50;82.08;;;;;;;-3.98;75.44;97515.73;1732508;81;25828;-88
2020/12/15 07:32:04;;;;;;;236.45;100.38;;;;;;;-3.92;75.56;97524.98;1733175;81;25790;-86
2020/12/15 07:34:31;;;;;;;219.87;101.47;;;;;;;-3.86;75.56;97529.77;1733263;81;25816;-90
2020/12/15 07:36:59;;;;;;;213.65;93.37;;;;;;;-3.79;75.62;97527.03;1732700;81;27575;-86
2020/12/15 07:39:26;;;;;;;215.65;92.70;;;;;;;-3.75;75.63;97524.52;1732334;81;25824;-90
2020/12/15 07:42:01;;;;;;;178.95;77.53;;;;;;;-3.71;75.65;97512.75;1732395;81;25386;-90
2020/12/15 07:44:28;;;;;;;152.47;66.67;;;;;;;-3.65;75.70;97512.29;1732576;81;25684;-90
2020/12/15 07:46:57;;;;;;;140.55;64.20;;;;;;;-3.55;75.79;97515.03;1732653;81;26195;-92
2020/12/15 07:49:25;;;;;;;146.05;67.32;;;;;;;-3.50;75.80;97505.77;1732616;81;27710;-90
2020/12/15 07:51:53;;;;;;;144.32;65.45;;;;;;;-3.43;75.85;97513.58;1732721;81;25684;-91
2020/12/15 07:54:21;;;;;;;162.12;68.12;;;;;;;-3.38;75.92;97520.63;1712679;81;25787;-91
2020/12/15 07:56:52;;;;;;;157.03;64.87;;;;;;;-3.32;75.95;97516.68;1732718;81;25719;-91
2020/12/15 07:59:20;;;;;;;169.82;71.80;;;;;;;-3.22;76.01;97518.09;1732775;81;25800;-93
2020/12/15 08:01:47;;;;;;;198.28;88.00;;;;;;;-3.09;76.11;97517.47;1732767;81;27826;-88
2020/12/15 08:04:16;;;;;;;204.60;83.95;;;;;;;-2.99;76.12;97514.43;1732598;80;25967;-93
2020/12/15 08:06:47;;;;;;;174.00;76.75;;;;;;;-2.86;76.17;97515.59;1705967;82;26273;-91
2020/12/15 08:09:18;;;;;;;153.32;69.20;;;;;;;-2.74;76.17;97513.27;1732995;81;25759;-89
2020/12/15 08:11:50;;;;;;;136.45;61.77;;;;;;;-2.62;76.26;97509.13;1732712;81;25727;-90
2020/12/15 08:14:18;;;;;;;;;;;;;;;-2.45;76.33;97511.70;1735219;81;27483;-87
2020/12/15 08:16:46;;;;;;;129.00;57.65;;;;;;;-2.33;76.24;97515.96;1732605;81;25715;-94
2020/12/15 08:19:16;;;;;;;143.87;61.88;;;;;;;-2.23;76.29;97508.09;1732699;81;25699;-87
2020/12/15 08:21:50;;;;;;;141.95;62.85;;;;;;;-2.10;76.32;97508.73;1732774;81;25533;-86
2020/12/15 08:24:22;;;;;;;148.55;64.35;;;;;;;-1.98;76.28;97503.72;1732606;81;25895;-88
2020/12/15 08:26:49;;;;;;;143.00;64.17;;;;;;;-1.84;76.27;97509.16;1732680;81;27537;-89
2020/12/15 08:29:20;;;;;;;152.90;67.92;;;;;;;-1.68;76.32;97507.32;1732483;81;26309;-91
2020/12/15 08:31:47;;;;;;;176.65;74.32;;;;;;;-1.53;76.32;97509.48;1732545;81;25781;-90
2020/12/15 08:34:20;;;;;;;143.20;69.55;;;;;;;-1.39;76.16;97508.28;1732519;81;26688;-89
2020/12/15 08:36:54;;;;;;;125.60;57.30;;;;;;;-1.28;76.10;97510.81;1732568;81;25767;-87
2020/12/15 08:39:26;;;;;;;111.45;54.38;;;;;;;-1.15;76.09;97506.12;1732458;81;27509;-87
2020/12/15 08:41:56;;;;;;;;;;;;;;;-1.00;76.10;97508.37;1735187;81;25870;-88
2020/12/15 08:44:25;;;;;;;112.77;50.50;;;;;;;-0.83;76.07;97512.98;1732801;81;25800;-86
2020/12/15 08:46:55;;;;;;;107.40;49.88;;;;;;;-0.71;75.92;97510.55;1732615;81;26347;-87
2020/12/15 08:49:25;;;;;;;107.43;51.65;;;;;;;-0.56;75.87;97505.20;1732530;81;25788;-86
2020/12/15 08:51:54;;;;;;;106.12;52.55;;;;;;;-0.37;75.84;97510.52;1732541;81;28464;-87
2020/12/15 08:54:22;;;;;;;118.45;55.12;;;;;;;-0.15;75.75;97507.20;1732329;81;25770;-85
2020/12/15 08:56:50;;;;;;;120.10;59.42;;;;;;;-0.01;75.59;97505.43;1732508;81;25783;-85
2020/12/15 08:59:23;;;;;;;120.60;59.55;;;;;;;0.18;75.49;97508.02;1732305;81;26329;-85
2020/12/15 09:01:59;;;;;;;123.58;61.20;;;;;;;0.39;75.34;97500.33;1732532;81;25754;-84
2020/12/15 09:04:28;;;;;;;122.80;60.65;;;;;;;0.52;75.18;97495.52;1732376;81;27514;-84
2020/12/15 09:06:56;;;;;;;121.85;61.83;;;;;;;0.62;75.06;97507.77;1732295;81;26244;-85
2020/12/15 09:09:30;;;;;;;125.42;65.65;;;;;;;0.80;75.14;97502.53;1731559;81;26128;-85
2020/12/15 09:11:58;;;;;;;128.57;66.77;;;;;;;0.94;75.04;97506.02;1732469;81;26620;-84
2020/12/15 09:14:25;;;;;;;139.57;70.20;;;;;;;1.10;74.98;97501.35;1732554;81;25768;-86
2020/12/15 09:16:53;;;;;;;125.97;65.20;;;;;;;1.30;74.89;97500.75;1732360;81;27578;-85
2020/12/15 09:19:22;;;;;;;121.85;61.63;;;;;;;1.46;74.78;97500.87;1732366;81;26236;-85
2020/12/15 09:22:06;;;;;;;75.50;39.00;;;;;;;1.56;74.36;97504.32;1731721;81;25862;-85
2020/12/15 09:24:46;;;;;;;79.35;41.20;;;;;;;1.69;74.15;97508.73;1732416;81;25843;-85
2020/12/15 09:27:20;;;;;;;76.17;37.55;;;;;;;2.07;74.20;97505.37;1732336;81;26116;-86
2020/12/15 09:29:48;;;;;;;68.50;35.23;;;;;;;2.26;73.75;97503.02;1731499;81;27240;-85
2020/12/15 09:32:17;;;;;;;65.25;32.55;;;;;;;2.54;73.50;97501.33;1744226;81;25976;-86
2020/12/15 09:34:46;;;;;;;68.30;32.60;;;;;;;2.69;73.32;97502.06;1749229;80;25839;-86
2020/12/15 09:37:13;;;;;;;60.73;32.05;;;;;;;2.88;72.96;97497.83;1753830;81;25770;-86
2020/12/15 09:39:42;;;;;;;66.72;32.70;;;;;;;3.10;72.90;97500.40;1714304;82;25765;-86
2020/12/15 09:42:09;;;;;;;79.17;35.90;;;;;;;3.43;72.57;97501.30;1699465;82;27718;-85
2020/12/15 09:44:37;;;;;;;91.65;38.85;;;;;;;3.63;72.07;97501.31;1699662;82;25834;-86
2020/12/15 09:47:05;;;;;;;84.17;38.15;;;;;;;3.88;72.16;97507.50;1699800;82;25842;-86
2020/12/15 09:49:34;;;;;;;61.83;30.10;;;;;;;4.13;71.67;97506.99;1699710;82;25750;-85
2020/12/15 09:52:01;;;;;;;57.17;28.90;;;;;;;4.31;71.05;97503.64;1699869;82;25724;-86
2020/12/15 09:54:29;;;;;;;63.68;31.17;;;;;;;4.44;70.44;97497.77;1699826;82;27573;-88
2020/12/15 09:56:56;;;;;;;58.73;29.57;;;;;;;4.56;70.26;97491.90;1699847;82;25742;-86
2020/12/15 09:59:23;;;;;;;58.75;30.65;;;;;;;4.77;70.27;97485.13;1699943;82;26403;-84
2020/12/15 10:01:51;;;;;;;64.32;30.32;;;;;;;4.92;69.32;97483.41;1699859;82;25821;-85
2020/12/15 10:04:19;;;;;;;57.17;29.95;;;;;;;4.92;69.56;97476.22;1692934;82;25770;-86
2020/12/15 10:06:48;;;;;;;60.85;31.82;;;;;;;5.04;69.63;97473.48;1687596;83;28286;-84
2020/12/15 10:09:16;;;;;;;56.30;29.82;;;;;;;5.20;69.55;97472.54;1687460;83;25732;-84
2020/12/15 10:11:45;;;;;;;57.90;29.60;;;;;;;5.40;69.30;97468.42;1687525;83;26280;-89
2020/12/15 10:14:12;;;;;;;55.90;27.98;;;;;;;5.58;68.81;97472.64;1687661;83;26472;-85
2020/12/15 10:16:40;;;;;;;58.48;31.05;;;;;;;5.75;68.43;97467.50;1687591;83;25757;-84
2020/12/15 10:19:08;;;;;;;53.38;27.98;;;;;;;5.90;68.47;97472.44;1687611;83;27779;-85
2020/12/15 10:21:39;;;;;;;55.43;28.00;;;;;;;6.09;68.08;97466.56;1687399;83;25788;-90
2020/12/15 10:24:06;;;;;;;51.37;26.82;;;;;;;6.33;67.91;97460.64;1687430;83;25795;-89
2020/12/15 10:26:33;;;;;;;47.62;27.05;;;;;;;6.60;67.55;97457.33;1687602;83;25742;-85
2020/12/15 10:29:01;;;;;;;50.52;28.25;;;;;;;6.88;66.49;97449.97;1687489;83;25897;-88
2020/12/15 10:31:28;;;;;;;45.03;26.12;;;;;;;7.05;66.67;97455.43;1687448;83;27717;-87
2020/12/15 10:33:56;;;;;;;44.50;25.20;;;;;;;7.32;65.55;97448.02;1687469;83;25846;-85
2020/12/15 10:36:23;;;;;;;52.90;27.90;;;;;;;7.49;65.36;97452.11;1687606;83;25752;-86
2020/12/15 10:38:51;;;;;;;45.58;26.48;;;;;;;7.55;64.97;97447.33;1687574;83;25529;-84
2020/12/15 10:41:26;;;;;;;48.25;26.60;;;;;;;7.48;64.23;97439.73;1687706;83;25830;-89
2020/12/15 10:43:54;;;;;;;45.63;26.07;;;;;;;7.56;64.74;97449.00;1687710;83;27702;-85
2020/12/15 10:46:26;;;;;;;46.48;26.90;;;;;;;7.78;64.75;97442.27;1687128;83;25831;-91
2020/12/15 10:48:54;;;;;;;43.50;26.07;;;;;;;7.96;64.33;97433.25;1687618;83;25852;-90
2020/12/15 10:51:22;;;;;;;44.45;24.35;;;;;;;8.09;63.94;97425.26;1686674;83;26283;-90
2020/12/15 10:53:50;;;;;;;51.80;27.95;;;;;;;8.22;63.65;97426.70;1687317;83;25942;-89
2020/12/15 10:56:18;;;;;;;45.03;24.00;;;;;;;8.38;63.31;97424.27;1681739;83;27489;-90
2020/12/15 10:58:45;;;;;;;47.90;24.80;;;;;;;8.64;63.50;97416.87;1707662;81;25750;-90
2020/12/15 11:01:13;;;;;;;45.58;25.60;;;;;;;8.91;62.83;97417.84;1718417;81;26016;-91
2020/12/15 11:03:40;;;;;;;42.30;23.22;;;;;;;9.09;62.46;97419.45;1691123;81;25722;-84
2020/12/15 11:06:08;;;;;;;39.53;23.55;;;;;;;9.23;62.04;97414.44;1679512;82;26019;-87
2020/12/15 11:08:35;;;;;;;45.30;26.55;;;;;;;9.43;61.70;97415.82;1706267;82;27380;-90
2020/12/15 11:11:03;;;;;;;43.63;24.85;;;;;;;9.54;61.12;97411.18;1706260;82;25780;-89
2020/12/15 11:13:32;;;;;;;48.73;28.23;;;;;;;9.67;61.09;97411.20;1686401;82;25802;-88
2020/12/15 11:16:02;;;;;;;47.20;26.73;;;;;;;9.84;60.95;97416.20;1678206;84;27671;-91
2020/12/15 11:21:38;;;;;;;46.80;25.75;;;;;;;10.13;60.21;97407.72;1691534;83;27523;-90
2020/12/15 11:24:05;;;;;;;42.58;23.95;;;;;;;10.22;59.69;97402.44;1724009;81;25791;-89
2020/12/15 11:26:33;;;;;;;44.35;24.32;;;;;;;10.33;59.67;97400.45;1724247;81;25783;-89